sensor_id;sensor_type;location;lat;lon;timestamp;pressure;altitude;pressure_sealevel;temperature;humidity
11017;BME280;54687;50.800;6.772;2023-09-08T00:02:09;93511.31;;;-144.06;28.11
11017;BME280;54687;50.800;6.772;2023-09-08T00:04:36;93507.09;;;-144.06;28.20
11017;BME280;54687;50.800;6.772;2023-09-08T00:07:03;93568.47;;;-144.06;28.16
11017;BME280;54687;50.800;6.772;2023-09-08T00:09:31;93625.59;;;-144.06;28.14
11017;BME280;54687;50.800;6.772;2023-09-08T00:11:58;93617.13;;;-144.06;28.46
11017;BME280;54687;50.800;6.772;2023-09-08T00:14:25;93543.06;;;-144.06;28.22
11017;BME280;54687;50.800;6.772;2023-09-08T00:16:52;93568.47;;;-144.06;28.30
11017;BME280;54687;50.800;6.772;2023-09-08T00:19:21;93621.38;;;-144.06;28.21
11017;BME280;54687;50.800;6.772;2023-09-08T00:21:48;93587.50;;;-144.06;28.31
11017;BME280;54687;50.800;6.772;2023-09-08T00:24:18;93634.06;;;-144.06;28.36
11017;BME280;54687;50.800;6.772;2023-09-08T00:26:47;93638.28;;;-144.06;28.37
11017;BME280;54687;50.800;6.772;2023-09-08T00:29:14;93629.81;;;-144.06;28.24
11017;BME280;54687;50.800;6.772;2023-09-08T00:31:41;93667.91;;;-144.06;28.16
11017;BME280;54687;50.800;6.772;2023-09-08T00:34:09;93788.53;;;-144.06;28.33
11017;BME280;54687;50.800;6.772;2023-09-08T00:36:39;93655.22;;;-144.06;28.34
11017;BME280;54687;50.800;6.772;2023-09-08T00:39:06;93655.22;;;-144.06;28.00
11017;BME280;54687;50.800;6.772;2023-09-08T00:41:33;93703.91;;;-144.06;28.50
11017;BME280;54687;50.800;6.772;2023-09-08T00:44:01;93703.91;;;-144.06;28.50
11017;BME280;54687;50.800;6.772;2023-09-08T00:46:27;93714.47;;;-144.06;28.23
11017;BME280;54687;50.800;6.772;2023-09-08T00:48:56;93739.88;;;-144.06;28.37
11017;BME280;54687;50.800;6.772;2023-09-08T00:51:22;93761.03;;;-144.06;28.53
11017;BME280;54687;50.800;6.772;2023-09-08T00:53:49;93765.25;;;-144.06;28.72
11017;BME280;54687;50.800;6.772;2023-09-08T00:56:16;93773.72;;;-144.06;28.40
11017;BME280;54687;50.800;6.772;2023-09-08T00:58:42;93828.75;;;-144.06;28.41
11017;BME280;54687;50.800;6.772;2023-09-08T01:01:11;93782.19;;;-144.06;28.76
11017;BME280;54687;50.800;6.772;2023-09-08T01:03:38;93849.91;;;-144.06;28.70
11017;BME280;54687;50.800;6.772;2023-09-08T01:06:05;93790.66;;;-144.06;28.72
11017;BME280;54687;50.800;6.772;2023-09-08T01:08:34;93788.53;;;-144.06;28.59
11017;BME280;54687;50.800;6.772;2023-09-08T01:11:01;93883.78;;;-144.06;28.81
11017;BME280;54687;50.800;6.772;2023-09-08T01:13:28;93888.00;;;-144.06;28.82
11017;BME280;54687;50.800;6.772;2023-09-08T01:15:55;93904.94;;;-144.06;28.76
11017;BME280;54687;50.800;6.772;2023-09-08T01:18:23;93938.81;;;-144.06;28.57
11017;BME280;54687;50.800;6.772;2023-09-08T01:21:03;93943.03;;;-144.06;29.04
11017;BME280;54687;50.800;6.772;2023-09-08T01:23:46;93964.22;;;-144.06;29.03
11017;BME280;54687;50.800;6.772;2023-09-08T01:26:20;93968.44;;;-144.06;29.02
11017;BME280;54687;50.800;6.772;2023-09-08T01:28:49;93968.44;;;-144.06;29.02
11017;BME280;54687;50.800;6.772;2023-09-08T01:31:16;93991.72;;;-144.06;29.17
11017;BME280;54687;50.800;6.772;2023-09-08T01:33:44;94050.97;;;-144.06;29.07
11017;BME280;54687;50.800;6.772;2023-09-08T01:36:12;94044.63;;;-144.06;28.95
11017;BME280;54687;50.800;6.772;2023-09-08T01:38:39;94063.69;;;-144.06;29.17
11017;BME280;54687;50.800;6.772;2023-09-08T01:41:06;94108.13;;;-144.06;28.90
11017;BME280;54687;50.800;6.772;2023-09-08T01:43:33;94137.75;;;-144.06;29.33
11017;BME280;54687;50.800;6.772;2023-09-08T01:46:00;94154.69;;;-144.06;29.32
11017;BME280;54687;50.800;6.772;2023-09-08T01:48:27;94086.97;;;-144.06;29.44
11017;BME280;54687;50.800;6.772;2023-09-08T01:50:54;94053.09;;;-144.06;29.36
11017;BME280;54687;50.800;6.772;2023-09-08T01:53:20;94148.34;;;-144.06;29.18
11017;BME280;54687;50.800;6.772;2023-09-08T01:55:47;94148.34;;;-144.06;29.29
11017;BME280;54687;50.800;6.772;2023-09-08T01:58:14;94197.00;;;-144.06;29.51
11017;BME280;54687;50.800;6.772;2023-09-08T02:00:42;94197.00;;;-144.06;29.29
11017;BME280;54687;50.800;6.772;2023-09-08T02:03:08;94194.91;;;-144.06;29.45
11017;BME280;54687;50.800;6.772;2023-09-08T02:05:35;94158.91;;;-144.06;29.20
11017;BME280;54687;50.800;6.772;2023-09-08T02:08:05;94180.09;;;-144.06;29.20
11017;BME280;54687;50.800;6.772;2023-09-08T02:10:31;94156.81;;;-144.06;29.18
11017;BME280;54687;50.800;6.772;2023-09-08T02:12:58;94182.19;;;-144.06;29.07
11017;BME280;54687;50.800;6.772;2023-09-08T02:15:25;94205.47;;;-144.06;29.49
11017;BME280;54687;50.800;6.772;2023-09-08T02:17:53;94194.91;;;-144.06;29.53
11017;BME280;54687;50.800;6.772;2023-09-08T02:20:20;94209.72;;;-144.06;29.44
11017;BME280;54687;50.800;6.772;2023-09-08T02:22:47;94188.56;;;-144.06;29.50
11017;BME280;54687;50.800;6.772;2023-09-08T02:25:15;94163.16;;;-144.06;29.17
11017;BME280;54687;50.800;6.772;2023-09-08T02:27:42;94184.31;;;-144.06;29.09
11017;BME280;54687;50.800;6.772;2023-09-08T02:30:09;94237.22;;;-144.06;29.44
11017;BME280;54687;50.800;6.772;2023-09-08T02:32:36;94222.41;;;-144.06;29.34
11017;BME280;54687;50.800;6.772;2023-09-08T02:35:04;94237.22;;;-144.06;29.58
11017;BME280;54687;50.800;6.772;2023-09-08T02:37:31;94241.47;;;-144.06;29.53
11017;BME280;54687;50.800;6.772;2023-09-08T02:39:58;94245.69;;;-144.06;29.55
11017;BME280;54687;50.800;6.772;2023-09-08T02:42:24;94260.50;;;-144.06;29.60
11017;BME280;54687;50.800;6.772;2023-09-08T02:44:51;94237.22;;;-144.06;29.46
11017;BME280;54687;50.800;6.772;2023-09-08T02:47:18;94258.41;;;-144.06;29.64
11017;BME280;54687;50.800;6.772;2023-09-08T02:49:44;94260.50;;;-144.06;29.61
11017;BME280;54687;50.800;6.772;2023-09-08T02:52:12;94260.50;;;-144.06;29.35
11017;BME280;54687;50.800;6.772;2023-09-08T02:54:39;94281.69;;;-144.06;29.28
11017;BME280;54687;50.800;6.772;2023-09-08T02:57:06;94281.69;;;-144.06;29.59
11017;BME280;54687;50.800;6.772;2023-09-08T02:59:32;94307.06;;;-144.06;29.60
11017;BME280;54687;50.800;6.772;2023-09-08T03:01:59;94345.19;;;-144.06;29.56
11017;BME280;54687;50.800;6.772;2023-09-08T03:04:26;94311.31;;;-144.06;29.78
11017;BME280;54687;50.800;6.772;2023-09-08T03:06:53;94326.13;;;-144.06;29.86
11017;BME280;54687;50.800;6.772;2023-09-08T03:09:21;94319.78;;;-144.06;29.56
11017;BME280;54687;50.800;6.772;2023-09-08T03:11:47;94343.06;;;-144.06;29.52
11017;BME280;54687;50.800;6.772;2023-09-08T03:14:14;94343.06;;;-144.06;29.83
11017;BME280;54687;50.800;6.772;2023-09-08T03:16:40;94307.06;;;-144.06;29.95
11017;BME280;54687;50.800;6.772;2023-09-08T03:19:07;94271.09;;;-144.06;29.56
11017;BME280;54687;50.800;6.772;2023-09-08T03:21:34;94311.31;;;-144.06;29.56
11017;BME280;54687;50.800;6.772;2023-09-08T03:24:00;94330.38;;;-144.06;29.66
11017;BME280;54687;50.800;6.772;2023-09-08T03:26:28;94340.94;;;-144.06;29.45
11017;BME280;54687;50.800;6.772;2023-09-08T03:28:55;94332.47;;;-144.06;29.46
11017;BME280;54687;50.800;6.772;2023-09-08T03:31:21;94319.78;;;-144.06;29.60
11017;BME280;54687;50.800;6.772;2023-09-08T03:33:48;94357.88;;;-144.06;29.55
11017;BME280;54687;50.800;6.772;2023-09-08T03:36:16;94387.50;;;-144.06;29.51
11017;BME280;54687;50.800;6.772;2023-09-08T03:38:43;94379.03;;;-144.06;29.71
11017;BME280;54687;50.800;6.772;2023-09-08T03:41:09;94398.09;;;-144.06;29.61
11017;BME280;54687;50.800;6.772;2023-09-08T03:43:37;94400.22;;;-144.06;29.82
11017;BME280;54687;50.800;6.772;2023-09-08T03:46:04;94419.25;;;-144.06;29.93
11017;BME280;54687;50.800;6.772;2023-09-08T03:48:31;94408.69;;;-144.06;29.84
11017;BME280;54687;50.800;6.772;2023-09-08T03:50:58;94438.31;;;-144.06;29.71
11017;BME280;54687;50.800;6.772;2023-09-08T03:53:25;94355.75;;;-144.06;29.73
11017;BME280;54687;50.800;6.772;2023-09-08T03:55:52;94379.03;;;-144.06;29.78
11017;BME280;54687;50.800;6.772;2023-09-08T03:58:18;94379.03;;;-144.06;29.79
11017;BME280;54687;50.800;6.772;2023-09-08T04:00:46;94417.16;;;-144.06;29.68
11017;BME280;54687;50.800;6.772;2023-09-08T04:03:13;94387.50;;;-144.06;29.66
11017;BME280;54687;50.800;6.772;2023-09-08T04:05:39;94389.63;;;-144.06;29.95
11017;BME280;54687;50.800;6.772;2023-09-08T04:08:06;94404.44;;;-144.06;29.98
11017;BME280;54687;50.800;6.772;2023-09-08T04:10:32;94408.69;;;-144.06;29.68
11017;BME280;54687;50.800;6.772;2023-09-08T04:12:59;94400.22;;;-144.06;29.96
11017;BME280;54687;50.800;6.772;2023-09-08T04:15:26;94393.84;;;-144.06;29.68
11017;BME280;54687;50.800;6.772;2023-09-08T04:17:54;94436.19;;;-144.06;30.02
11017;BME280;54687;50.800;6.772;2023-09-08T04:20:22;94395.97;;;-144.06;29.83
11017;BME280;54687;50.800;6.772;2023-09-08T04:22:49;94393.84;;;-144.06;29.94
11017;BME280;54687;50.800;6.772;2023-09-08T04:25:15;94391.75;;;-144.06;29.66
11017;BME280;54687;50.800;6.772;2023-09-08T04:27:42;94434.06;;;-144.06;29.62
11017;BME280;54687;50.800;6.772;2023-09-08T04:30:10;94410.78;;;-144.06;29.88
11017;BME280;54687;50.800;6.772;2023-09-08T04:32:37;94395.97;;;-144.06;29.93
11017;BME280;54687;50.800;6.772;2023-09-08T04:35:06;94410.78;;;-144.06;29.65
11017;BME280;54687;50.800;6.772;2023-09-08T04:37:33;94391.75;;;-144.06;29.58
11017;BME280;54687;50.800;6.772;2023-09-08T04:39:59;94417.16;;;-144.06;29.61
11017;BME280;54687;50.800;6.772;2023-09-08T04:42:26;94436.19;;;-144.06;29.85
11017;BME280;54687;50.800;6.772;2023-09-08T04:44:53;94366.34;;;-144.06;29.83
11017;BME280;54687;50.800;6.772;2023-09-08T04:47:19;94389.63;;;-144.06;29.75
11017;BME280;54687;50.800;6.772;2023-09-08T04:49:46;94410.78;;;-144.06;29.63
11017;BME280;54687;50.800;6.772;2023-09-08T04:52:14;94374.81;;;-144.06;29.59
11017;BME280;54687;50.800;6.772;2023-09-08T04:54:41;94387.50;;;-144.06;29.54
11017;BME280;54687;50.800;6.772;2023-09-08T04:57:07;94370.56;;;-144.06;29.47
11017;BME280;54687;50.800;6.772;2023-09-08T04:59:34;94387.50;;;-144.06;29.50
11017;BME280;54687;50.800;6.772;2023-09-08T05:02:02;94336.72;;;-144.06;29.48
11017;BME280;54687;50.800;6.772;2023-09-08T05:04:29;94404.44;;;-144.06;29.75
11017;BME280;54687;50.800;6.772;2023-09-08T05:06:56;94370.56;;;-144.06;29.70
11017;BME280;54687;50.800;6.772;2023-09-08T05:09:24;94383.28;;;-144.06;29.55
11017;BME280;54687;50.800;6.772;2023-09-08T05:11:53;94368.47;;;-144.06;29.74
11017;BME280;54687;50.800;6.772;2023-09-08T05:14:19;94340.94;;;-144.06;29.66
11017;BME280;54687;50.800;6.772;2023-09-08T05:16:46;94260.50;;;-144.06;29.55
11017;BME280;54687;50.800;6.772;2023-09-08T05:19:15;94188.56;;;-144.06;29.13
11017;BME280;54687;50.800;6.772;2023-09-08T05:21:42;94125.06;;;-144.06;29.21
11017;BME280;54687;50.800;6.772;2023-09-08T05:24:09;94099.66;;;-144.06;28.89
11017;BME280;54687;50.800;6.772;2023-09-08T05:26:37;94048.88;;;-144.06;28.85
11017;BME280;54687;50.800;6.772;2023-09-08T05:29:04;93989.59;;;-144.06;28.84
11017;BME280;54687;50.800;6.772;2023-09-08T05:31:31;93890.13;;;-144.06;28.86
11017;BME280;54687;50.800;6.772;2023-09-08T05:33:58;93767.38;;;-144.06;28.62
11017;BME280;54687;50.800;6.772;2023-09-08T05:36:25;93678.50;;;-144.06;28.44
11017;BME280;54687;50.800;6.772;2023-09-08T05:38:51;93557.88;;;-144.06;28.34
11017;BME280;54687;50.800;6.772;2023-09-08T05:41:18;93433.03;;;-144.06;27.89
11017;BME280;54687;50.800;6.772;2023-09-08T05:43:47;93337.81;;;-144.06;27.66
11017;BME280;54687;50.800;6.772;2023-09-08T05:46:13;93274.31;;;-144.06;27.57
11017;BME280;54687;50.800;6.772;2023-09-08T05:48:40;93223.53;;;-144.06;27.50
11017;BME280;54687;50.800;6.772;2023-09-08T05:51:06;93081.78;;;-144.06;27.13
11017;BME280;54687;50.800;6.772;2023-09-08T05:53:33;93018.31;;;-144.06;26.96
11017;BME280;54687;50.800;6.772;2023-09-08T05:56:01;92916.75;;;-144.06;26.79
11017;BME280;54687;50.800;6.772;2023-09-08T05:58:30;92732.69;;;-144.06;26.91
11017;BME280;54687;50.800;6.772;2023-09-08T06:01:03;92711.53;;;-144.06;26.68
11017;BME280;54687;50.800;6.772;2023-09-08T06:03:30;92626.91;;;-144.06;26.52
11017;BME280;54687;50.800;6.772;2023-09-08T06:05:57;92652.28;;;-144.06;26.67
11017;BME280;54687;50.800;6.772;2023-09-08T06:08:24;92667.09;;;-144.06;26.40
11017;BME280;54687;50.800;6.772;2023-09-08T06:10:50;92722.09;;;-144.06;26.47
11017;BME280;54687;50.800;6.772;2023-09-08T06:13:17;92800.38;;;-144.06;26.47
11017;BME280;54687;50.800;6.772;2023-09-08T06:15:43;92908.28;;;-144.06;26.46
11017;BME280;54687;50.800;6.772;2023-09-08T06:18:11;92952.72;;;-144.06;26.64
11017;BME280;54687;50.800;6.772;2023-09-08T06:20:44;92995.03;;;-144.06;26.59
11017;BME280;54687;50.800;6.772;2023-09-08T06:23:11;93096.59;;;-144.06;26.79
11017;BME280;54687;50.800;6.772;2023-09-08T06:25:37;93155.84;;;-144.06;26.88
11017;BME280;54687;50.800;6.772;2023-09-08T06:28:04;93242.59;;;-144.06;27.04
11017;BME280;54687;50.800;6.772;2023-09-08T06:30:31;93312.41;;;-144.06;27.26
11017;BME280;54687;50.800;6.772;2023-09-08T06:32:57;93289.13;;;-144.06;27.14
11017;BME280;54687;50.800;6.772;2023-09-08T06:35:26;93312.41;;;-144.06;27.19
11017;BME280;54687;50.800;6.772;2023-09-08T06:37:53;93350.50;;;-144.06;27.21
11017;BME280;54687;50.800;6.772;2023-09-08T06:40:19;93367.44;;;-144.06;27.33
11017;BME280;54687;50.800;6.772;2023-09-08T06:42:46;93384.34;;;-144.06;27.32
11017;BME280;54687;50.800;6.772;2023-09-08T06:45:13;93397.06;;;-144.06;27.40
11017;BME280;54687;50.800;6.772;2023-09-08T06:47:40;93388.59;;;-144.06;27.39
11017;BME280;54687;50.800;6.772;2023-09-08T06:50:07;93390.72;;;-144.06;27.53
11017;BME280;54687;50.800;6.772;2023-09-08T06:52:35;93494.41;;;-144.06;27.57
11017;BME280;54687;50.800;6.772;2023-09-08T06:55:03;93439.38;;;-144.06;27.59
11017;BME280;54687;50.800;6.772;2023-09-08T06:57:30;93418.22;;;-144.06;27.55
11017;BME280;54687;50.800;6.772;2023-09-08T06:59:57;93445.72;;;-144.06;27.70
11017;BME280;54687;50.800;6.772;2023-09-08T07:02:23;93409.75;;;-144.06;27.80
11017;BME280;54687;50.800;6.772;2023-09-08T07:04:51;93339.91;;;-144.06;27.77
11017;BME280;54687;50.800;6.772;2023-09-08T07:07:18;93384.34;;;-144.06;27.70
11017;BME280;54687;50.800;6.772;2023-09-08T07:09:47;93265.84;;;-144.06;27.54
11017;BME280;54687;50.800;6.772;2023-09-08T07:12:13;93204.50;;;-144.06;27.70
11017;BME280;54687;50.800;6.772;2023-09-08T07:14:40;93215.06;;;-144.06;27.51
11017;BME280;54687;50.800;6.772;2023-09-08T07:17:07;93181.22;;;-144.06;27.66
11017;BME280;54687;50.800;6.772;2023-09-08T07:19:33;93141.03;;;-144.06;27.65
11017;BME280;54687;50.800;6.772;2023-09-08T07:22:00;93086.00;;;-144.06;27.63
11017;BME280;54687;50.800;6.772;2023-09-08T07:24:27;93062.72;;;-144.06;27.56
11017;BME280;54687;50.800;6.772;2023-09-08T07:26:55;93011.94;;;-144.06;27.67
11017;BME280;54687;50.800;6.772;2023-09-08T07:29:21;92969.63;;;-144.06;27.43
11017;BME280;54687;50.800;6.772;2023-09-08T07:31:48;92959.06;;;-144.06;27.39
11017;BME280;54687;50.800;6.772;2023-09-08T07:34:14;92882.88;;;-144.06;27.50
11017;BME280;54687;50.800;6.772;2023-09-08T07:36:41;92821.53;;;-144.06;27.47
11017;BME280;54687;50.800;6.772;2023-09-08T07:39:07;92832.13;;;-144.06;27.50
11017;BME280;54687;50.800;6.772;2023-09-08T07:41:34;92779.22;;;-144.06;27.31
11017;BME280;54687;50.800;6.772;2023-09-08T07:44:03;92730.56;;;-144.06;27.44
11017;BME280;54687;50.800;6.772;2023-09-08T07:46:30;92711.53;;;-144.06;27.16
11017;BME280;54687;50.800;6.772;2023-09-08T07:48:59;92571.88;;;-144.06;26.76
11017;BME280;54687;50.800;6.772;2023-09-08T07:51:26;92533.81;;;-144.06;26.68
11017;BME280;54687;50.800;6.772;2023-09-08T07:53:53;92590.94;;;-144.06;26.74
11017;BME280;54687;50.800;6.772;2023-09-08T07:56:21;92398.41;;;-144.06;26.69
11017;BME280;54687;50.800;6.772;2023-09-08T07:58:48;92339.19;;;-144.06;26.46
11017;BME280;54687;50.800;6.772;2023-09-08T08:01:16;92307.47;;;-144.06;26.31
11017;BME280;54687;50.800;6.772;2023-09-08T08:03:42;92201.69;;;-144.06;26.17
11017;BME280;54687;50.800;6.772;2023-09-08T08:06:09;92231.31;;;-144.06;25.76
11017;BME280;54687;50.800;6.772;2023-09-08T08:08:36;92244.00;;;-144.06;25.82
11017;BME280;54687;50.800;6.772;2023-09-08T08:11:10;92045.16;;;-144.06;25.83
11017;BME280;54687;50.800;6.772;2023-09-08T08:13:37;92083.22;;;-144.06;25.78
11017;BME280;54687;50.800;6.772;2023-09-08T08:16:03;92004.97;;;-144.06;25.74
11017;BME280;54687;50.800;6.772;2023-09-08T08:18:31;91903.44;;;-144.06;25.49
11017;BME280;54687;50.800;6.772;2023-09-08T08:20:59;91928.81;;;-144.06;25.23
11017;BME280;54687;50.800;6.772;2023-09-08T08:23:28;91869.59;;;-144.06;25.21
11017;BME280;54687;50.800;6.772;2023-09-08T08:25:55;91772.31;;;-144.06;25.53
11017;BME280;54687;50.800;6.772;2023-09-08T08:28:22;91763.84;;;-144.06;25.17
11017;BME280;54687;50.800;6.772;2023-09-08T08:30:49;91691.94;;;-144.06;25.17
11017;BME280;54687;50.800;6.772;2023-09-08T08:33:16;91655.97;;;-144.06;25.14
11017;BME280;54687;50.800;6.772;2023-09-08T08:35:50;91579.84;;;-144.06;24.84
11017;BME280;54687;50.800;6.772;2023-09-08T08:38:17;91543.88;;;-144.06;24.85
11017;BME280;54687;50.800;6.772;2023-09-08T08:40:43;91476.19;;;-144.06;24.97
11017;BME280;54687;50.800;6.772;2023-09-08T08:43:10;91357.78;;;-144.06;25.04
11017;BME280;54687;50.800;6.772;2023-09-08T08:45:37;91345.09;;;-144.06;24.61
11017;BME280;54687;50.800;6.772;2023-09-08T08:48:05;91336.63;;;-144.06;24.70
11017;BME280;54687;50.800;6.772;2023-09-08T08:50:32;91190.72;;;-144.06;24.68
11017;BME280;54687;50.800;6.772;2023-09-08T08:53:00;91137.84;;;-144.06;24.59
11017;BME280;54687;50.800;6.772;2023-09-08T08:55:29;91095.53;;;-144.06;24.63
11017;BME280;54687;50.800;6.772;2023-09-08T08:58:01;90979.25;;;-144.06;24.61
11017;BME280;54687;50.800;6.772;2023-09-08T09:00:29;90892.53;;;-144.06;24.41
11017;BME280;54687;50.800;6.772;2023-09-08T09:02:57;90786.81;;;-144.06;24.33
11017;BME280;54687;50.800;6.772;2023-09-08T09:05:25;90791.03;;;-144.06;23.97
11017;BME280;54687;50.800;6.772;2023-09-08T09:07:53;91084.97;;;-144.06;23.95
11017;BME280;54687;50.800;6.772;2023-09-08T09:10:22;90960.22;;;-144.06;24.07
11017;BME280;54687;50.800;6.772;2023-09-08T09:12:49;90854.47;;;-144.06;24.20
11017;BME280;54687;50.800;6.772;2023-09-08T09:15:15;90769.91;;;-144.06;24.08
11017;BME280;54687;50.800;6.772;2023-09-08T09:17:43;90960.22;;;-144.06;23.60
11017;BME280;54687;50.800;6.772;2023-09-08T09:20:14;90704.34;;;-144.06;23.94
11017;BME280;54687;50.800;6.772;2023-09-08T09:22:43;90657.84;;;-144.06;23.94
11017;BME280;54687;50.800;6.772;2023-09-08T09:25:22;90588.06;;;-144.06;23.90
11017;BME280;54687;50.800;6.772;2023-09-08T09:27:52;90575.38;;;-144.06;23.84
11017;BME280;54687;50.800;6.772;2023-09-08T09:30:19;90778.38;;;-144.06;23.48
11017;BME280;54687;50.800;6.772;2023-09-08T09:32:46;90638.81;;;-144.06;23.75
11017;BME280;54687;50.800;6.772;2023-09-08T09:35:15;90566.91;;;-144.06;23.69
11017;BME280;54687;50.800;6.772;2023-09-08T09:37:41;90414.69;;;-144.06;23.92
11017;BME280;54687;50.800;6.772;2023-09-08T09:40:09;90249.78;;;-144.06;23.64
11017;BME280;54687;50.800;6.772;2023-09-08T09:42:39;90175.78;;;-144.06;23.64
11017;BME280;54687;50.800;6.772;2023-09-08T09:45:07;90091.22;;;-144.06;23.65
11017;BME280;54687;50.800;6.772;2023-09-08T09:47:36;90408.34;;;-144.06;23.48
11017;BME280;54687;50.800;6.772;2023-09-08T09:50:03;90334.34;;;-144.06;23.49
11017;BME280;54687;50.800;6.772;2023-09-08T09:52:30;90311.09;;;-144.06;23.64
11017;BME280;54687;50.800;6.772;2023-09-08T09:54:57;90114.47;;;-144.06;23.44
11017;BME280;54687;50.800;6.772;2023-09-08T09:57:25;90122.94;;;-144.06;23.58
11017;BME280;54687;50.800;6.772;2023-09-08T09:59:53;90161.00;;;-144.06;23.26
11017;BME280;54687;50.800;6.772;2023-09-08T10:02:21;90038.38;;;-144.06;23.35
11017;BME280;54687;50.800;6.772;2023-09-08T10:04:49;89958.06;;;-144.06;23.43
11017;BME280;54687;50.800;6.772;2023-09-08T10:07:17;89755.13;;;-144.06;23.39
11017;BME280;54687;50.800;6.772;2023-09-08T10:09:44;89909.44;;;-144.06;23.13
11017;BME280;54687;50.800;6.772;2023-09-08T10:12:14;90015.13;;;-144.06;23.32
11017;BME280;54687;50.800;6.772;2023-09-08T10:14:42;89860.81;;;-144.06;23.06
11017;BME280;54687;50.800;6.772;2023-09-08T10:17:15;89905.19;;;-144.06;23.23
11017;BME280;54687;50.800;6.772;2023-09-08T10:19:44;89767.78;;;-144.06;23.33
11017;BME280;54687;50.800;6.772;2023-09-08T10:22:20;89581.78;;;-144.06;23.07
11017;BME280;54687;50.800;6.772;2023-09-08T10:24:49;89488.78;;;-144.06;23.11
11017;BME280;54687;50.800;6.772;2023-09-08T10:27:17;89406.34;;;-144.06;23.24
11017;BME280;54687;50.800;6.772;2023-09-08T10:29:47;89167.53;;;-144.06;23.30
11017;BME280;54687;50.800;6.772;2023-09-08T10:32:17;89095.66;;;-144.06;22.98
11017;BME280;54687;50.800;6.772;2023-09-08T10:34:45;89095.66;;;-144.06;23.06
11017;BME280;54687;50.800;6.772;2023-09-08T10:37:19;89023.81;;;-144.06;22.79
11017;BME280;54687;50.800;6.772;2023-09-08T10:39:46;89066.06;;;-144.06;22.79
11017;BME280;54687;50.800;6.772;2023-09-08T10:42:20;88947.72;;;-144.06;22.96
11017;BME280;54687;50.800;6.772;2023-09-08T10:44:56;89290.09;;;-144.06;22.87
11017;BME280;54687;50.800;6.772;2023-09-08T10:47:26;89036.47;;;-144.06;23.10
11017;BME280;54687;50.800;6.772;2023-09-08T10:49:56;88801.91;;;-144.06;23.01
11017;BME280;54687;50.800;6.772;2023-09-08T10:52:25;88689.91;;;-144.06;22.69
11017;BME280;54687;50.800;6.772;2023-09-08T10:54:53;88516.63;;;-144.06;22.79
11017;BME280;54687;50.800;6.772;2023-09-08T10:57:22;88472.25;;;-144.06;22.64
11017;BME280;54687;50.800;6.772;2023-09-08T10:59:51;88199.69;;;-144.06;22.65
11017;BME280;54687;50.800;6.772;2023-09-08T11:02:36;88079.25;;;-144.06;22.60
11017;BME280;54687;50.800;6.772;2023-09-08T11:05:07;87929.25;;;-144.06;22.41
11017;BME280;54687;50.800;6.772;2023-09-08T11:07:35;87925.03;;;-144.06;22.40
11017;BME280;54687;50.800;6.772;2023-09-08T11:10:02;87836.28;;;-144.06;22.38
11017;BME280;54687;50.800;6.772;2023-09-08T11:12:30;87764.47;;;-144.06;22.30
11017;BME280;54687;50.800;6.772;2023-09-08T11:14:58;87694.75;;;-144.06;22.28
11017;BME280;54687;50.800;6.772;2023-09-08T11:17:26;87663.06;;;-144.06;22.29
11017;BME280;54687;50.800;6.772;2023-09-08T11:19:54;87956.72;;;-144.06;22.25
11017;BME280;54687;50.800;6.772;2023-09-08T11:22:23;87912.34;;;-144.06;22.11
11017;BME280;54687;50.800;6.772;2023-09-08T11:24:51;87975.72;;;-144.06;22.15
11017;BME280;54687;50.800;6.772;2023-09-08T11:27:18;88174.31;;;-144.06;22.13
11017;BME280;54687;50.800;6.772;2023-09-08T11:29:45;88072.91;;;-144.06;22.19
11017;BME280;54687;50.800;6.772;2023-09-08T11:32:12;87899.66;;;-144.06;22.23
11017;BME280;54687;50.800;6.772;2023-09-08T11:34:39;87979.94;;;-144.06;22.20
11017;BME280;54687;50.800;6.772;2023-09-08T11:37:09;87984.19;;;-144.06;22.00
11017;BME280;54687;50.800;6.772;2023-09-08T11:39:37;87863.75;;;-144.06;22.26
11017;BME280;54687;50.800;6.772;2023-09-08T11:42:05;88005.31;;;-144.06;21.96
11017;BME280;54687;50.800;6.772;2023-09-08T11:44:32;87899.66;;;-144.06;22.20
11017;BME280;54687;50.800;6.772;2023-09-08T11:47:00;87829.94;;;-144.06;22.15
11017;BME280;54687;50.800;6.772;2023-09-08T11:49:33;87870.09;;;-144.06;22.10
11017;BME280;54687;50.800;6.772;2023-09-08T11:52:01;87777.13;;;-144.06;22.20
11017;BME280;54687;50.800;6.772;2023-09-08T11:54:31;87563.75;;;-144.06;22.10
11017;BME280;54687;50.800;6.772;2023-09-08T11:56:58;87527.84;;;-144.06;22.08
11017;BME280;54687;50.800;6.772;2023-09-08T11:59:26;87477.16;;;-144.06;21.96
11017;BME280;54687;50.800;6.772;2023-09-08T12:01:55;87303.94;;;-144.06;22.18
11017;BME280;54687;50.800;6.772;2023-09-08T12:04:21;87261.69;;;-144.06;21.96
11017;BME280;54687;50.800;6.772;2023-09-08T12:06:48;87620.81;;;-144.06;22.15
11017;BME280;54687;50.800;6.772;2023-09-08T12:09:15;87777.13;;;-144.06;22.15
11017;BME280;54687;50.800;6.772;2023-09-08T12:11:43;88258.84;;;-144.06;22.42
11017;BME280;54687;50.800;6.772;2023-09-08T12:14:11;88322.22;;;-144.06;22.49
11017;BME280;54687;50.800;6.772;2023-09-08T12:16:39;88282.09;;;-144.06;22.33
11017;BME280;54687;50.800;6.772;2023-09-08T12:19:05;88326.47;;;-144.06;22.42
11017;BME280;54687;50.800;6.772;2023-09-08T12:21:35;87770.78;;;-144.06;22.35
11017;BME280;54687;50.800;6.772;2023-09-08T12:24:19;88062.34;;;-144.06;22.38
11017;BME280;54687;50.800;6.772;2023-09-08T12:26:50;87903.88;;;-144.06;22.28
11017;BME280;54687;50.800;6.772;2023-09-08T12:29:16;87570.09;;;-144.06;22.30
11017;BME280;54687;50.800;6.772;2023-09-08T12:31:43;87612.34;;;-144.06;22.19
11017;BME280;54687;50.800;6.772;2023-09-08T12:34:10;87498.28;;;-144.06;22.18
11017;BME280;54687;50.800;6.772;2023-09-08T12:36:43;87329.28;;;-144.06;21.91
11017;BME280;54687;50.800;6.772;2023-09-08T12:39:10;87346.19;;;-144.06;22.12
11017;BME280;54687;50.800;6.772;2023-09-08T12:41:37;87532.06;;;-144.06;22.05
11017;BME280;54687;50.800;6.772;2023-09-08T12:44:05;87418.00;;;-144.06;21.92